aviador You're here:

LFMC Decoded Metar

LE LUC in FRANCE
Report Time2018-02-20 03:30:00
UTC Time2018-02-20 03:48:03
Flight Rules mvfr MVFR
Wind110° at 02 kt
W.Decomp.*RWY 13: 1.9 kt HW 0.7 kt LCW
RWY 09: 1.9 kt HW 0.7 kt RCW
W.Rank110° ranks 10
Current wind is below 110° avg. (7.2)
Visibility9999 m
Phenomena:N/A
Clouds:Broken 014 Hf
Overcast 021 Hf
Expected CloudBase > 800 ft AGL from Temp-Dew spread
Ceiling1,400 ft
Temp06°C (ISA -8)
Dew Point04°C (87% RH)
AAT4.0°C
QNH1009 hPa
Density Alt-518 ft
Elevation256 ft
Report Wrong Elevation
Raw Report
METAR LFMC 200330Z AUTO 11002KT 9999 BKN014 OVC021 06/04 Q1009=

Extra information for LFMC:More info

Metar Taf Metar & Taf Last 4 Metars F.Rules Stats Wind Profile Meteogram Temp Stats Airport Information Weather charts Add Link Nearby VenuesMetar ALERT Operation Metar Decoded Social comments